Kezdőlap
METAR-TAF:

METAR-TAF

Repülőterek :

Chesterfield Inlet, Nunavut, Kanada

földrajzi szélesség: 63-20N, földrajzi hosszúság: 090-43W, magasság: 11 m

Jelenlegi meteorológiai megfigyelések

A jelentés 2 órával és 57 perccel ezelõtt készült, 21:00 UTC
Nyugat-északnyugati szél 9 kt
Hőmérséklet -35°C
Páratartalom 66%
Légköri nyomás 1007 hPa
Látótávolság: 24.1 km
Kevés felhő 500 lábon

METAR: CYCS 152100Z 30009KT 15SM FEW005 M35/M39 A2975 RMK ST1 ST TR S00 AFT 15 UTC/45/LAST STFD OBS/NXT 161300 UTC SLP078

Idő: 17:57 (23:57 UTC)


TAF: hiányzik

Meteorológiai megfigyelések és előrejelzések több, mint 4000 repülőtéren (METAR és TAF jelentéseket).

A térképen piros és sárga pontok jelzik az elérhető meteorológiai állomásokat.

Mozgassa az egeret a pont fölött, hogy megjelenjen az állomás neve.

Azután kattintson az időjárási megfigyelések és előrejelzések megtekintéséhez.

A térkép megváltoztatása: kattintson a fekete keresztel jelölt zöld gombra ráközelítéshez, a vonallal jelölt zöld gombra távolításhoz, vagy a zöld nyilakra a szomszédos térképek eléréséhez.


METAR-TAF: